Time,TemperatureF,DewpointF,PressureIn,WindDirection,WindDirectionDegrees,WindSpeedMPH,WindSpeedGustMPH,Humidity,HourlyPrecipIn,Conditions,Clouds,dailyrainin,SoftwareType,DateUTC
2013-12-09 00:01:00,32.5,26.0,30.51,NE,45,3.5,8.0,73,0.00,,,0.00,Rainwise IP-100,2013-12-09 05:01:00,
2013-12-09 00:02:00,32.5,26.0,30.51,NNE,22,4.0,8.0,73,0.00,,,0.00,Rainwise IP-100,2013-12-09 05:02:00,
2013-12-09 00:07:00,32.6,26.0,30.52,ENE,67,2.3,8.0,73,0.00,,,0.00,Rainwise IP-100,2013-12-09 05:07:00,
2013-12-09 00:12:00,32.7,26.0,30.53,NE,45,4.9,7.0,73,0.00,,,0.00,Rainwise IP-100,2013-12-09 05:12:00,
2013-12-09 00:17:00,32.7,26.0,30.52,ENE,67,4.2,10.0,73,0.00,,,0.00,Rainwise IP-100,2013-12-09 05:17:00,
2013-12-09 00:22:00,32.7,26.0,30.52,NE,45,5.4,7.0,73,0.00,,,0.00,Rainwise IP-100,2013-12-09 05:22:00,
2013-12-09 00:27:00,32.7,26.0,30.51,ENE,67,6.1,7.0,73,0.00,,,0.00,Rainwise IP-100,2013-12-09 05:27:00,
2013-12-09 00:32:00,32.8,26.0,30.51,NNW,337,0.0,8.0,73,0.00,,,0.00,Rainwise IP-100,2013-12-09 05:32:00,
2013-12-09 00:37:00,32.8,26.0,30.51,ENE,67,3.0,7.0,73,0.00,,,0.00,Rainwise IP-100,2013-12-09 05:37:00,
2013-12-09 00:42:00,32.8,26.0,30.51,ENE,67,4.7,9.0,74,0.00,,,0.00,Rainwise IP-100,2013-12-09 05:42:00,
2013-12-09 00:47:00,32.8,26.0,30.51,NNE,22,2.8,9.0,74,0.00,,,0.00,Rainwise IP-100,2013-12-09 05:47:00,
2013-12-09 00:52:00,32.7,26.0,30.50,NNE,22,5.1,9.0,75,0.00,,,0.00,Rainwise IP-100,2013-12-09 05:52:00,
2013-12-09 00:57:00,32.6,26.0,30.50,NE,45,8.2,8.2,76,0.00,,,0.00,Rainwise IP-100,2013-12-09 05:57:00,
2013-12-09 01:02:00,32.6,26.0,30.49,ENE,67,6.5,8.0,76,0.00,,,0.00,Rainwise IP-100,2013-12-09 06:02:00,
2013-12-09 01:07:00,32.5,28.0,30.50,NE,45,3.5,9.0,77,0.00,,,0.00,Rainwise IP-100,2013-12-09 06:07:00,
2013-12-09 01:12:00,32.5,28.0,30.49,North,360,2.1,9.0,78,0.00,,,0.00,Rainwise IP-100,2013-12-09 06:12:00,
2013-12-09 01:17:00,32.5,28.0,30.50,NE,45,5.6,7.0,78,0.00,,,0.00,Rainwise IP-100,2013-12-09 06:17:00,
2013-12-09 01:22:00,32.5,28.0,30.50,NE,45,3.7,9.0,79,0.00,,,0.00,Rainwise IP-100,2013-12-09 06:22:00,
2013-12-09 01:27:00,32.5,28.0,30.50,NE,45,6.5,8.0,79,0.00,,,0.00,Rainwise IP-100,2013-12-09 06:27:00,
2013-12-09 01:32:00,32.4,26.0,30.49,NE,45,4.7,9.0,80,0.00,,,0.00,Rainwise IP-100,2013-12-09 06:32:00,
2013-12-09 01:37:00,32.3,26.0,30.48,NNW,337,3.5,8.0,80,0.00,,,0.00,Rainwise IP-100,2013-12-09 06:37:00,
2013-12-09 01:42:00,32.2,28.0,30.48,NNW,337,3.7,11.0,82,0.00,,,0.00,Rainwise IP-100,2013-12-09 06:42:00,
2013-12-09 01:47:00,32.1,28.0,30.47,NE,45,9.1,9.1,83,0.00,,,0.00,Rainwise IP-100,2013-12-09 06:47:00,
2013-12-09 01:52:00,32.1,28.0,30.47,NNE,22,3.0,9.0,83,0.00,,,0.00,Rainwise IP-100,2013-12-09 06:52:00,
2013-12-09 01:57:00,32.0,28.0,30.48,NE,45,4.0,8.0,84,0.00,,,0.00,Rainwise IP-100,2013-12-09 06:57:00,
2013-12-09 02:02:00,32.0,28.0,30.47,ENE,67,7.0,10.0,85,0.00,,,0.00,Rainwise IP-100,2013-12-09 07:02:00,
2013-12-09 02:07:00,32.0,28.0,30.46,NNW,337,0.0,10.0,86,0.00,,,0.00,Rainwise IP-100,2013-12-09 07:07:00,
2013-12-09 02:12:00,31.9,29.0,30.47,ENE,67,11.0,11.0,87,0.00,,,0.00,Rainwise IP-100,2013-12-09 07:12:00,
2013-12-09 02:17:00,31.9,29.0,30.46,NE,45,6.8,11.0,88,0.00,,,0.00,Rainwise IP-100,2013-12-09 07:17:00,
2013-12-09 02:22:00,32.0,29.0,30.47,NE,45,4.2,8.0,88,0.00,,,0.00,Rainwise IP-100,2013-12-09 07:22:00,
2013-12-09 02:27:00,32.0,29.0,30.46,ENE,67,4.9,8.0,89,0.00,,,0.00,Rainwise IP-100,2013-12-09 07:27:00,
2013-12-09 02:32:00,32.1,29.0,30.46,ENE,67,3.7,10.0,89,0.00,,,0.00,Rainwise IP-100,2013-12-09 07:32:00,
2013-12-09 02:37:00,32.1,29.0,30.47,NNE,22,5.1,8.0,90,0.00,,,0.00,Rainwise IP-100,2013-12-09 07:37:00,
2013-12-09 02:42:00,32.2,29.0,30.47,NE,45,1.2,9.0,90,0.00,,,0.00,Rainwise IP-100,2013-12-09 07:42:00,
2013-12-09 02:47:00,32.2,29.0,30.47,NNE,22,4.0,6.0,91,0.00,,,0.00,Rainwise IP-100,2013-12-09 07:47:00,
2013-12-09 02:52:00,32.3,29.0,30.46,NE,45,5.8,8.0,91,0.00,,,0.00,Rainwise IP-100,2013-12-09 07:52:00,
2013-12-09 02:57:00,32.3,29.0,30.47,ENE,67,2.6,9.0,91,0.00,,,0.00,Rainwise IP-100,2013-12-09 07:57:00,
2013-12-09 03:02:00,32.4,31.0,30.46,NNE,22,4.0,8.0,92,0.00,,,0.00,Rainwise IP-100,2013-12-09 08:02:00,
2013-12-09 03:07:00,32.5,31.0,30.45,ESE,112,2.3,7.0,92,0.00,,,0.00,Rainwise IP-100,2013-12-09 08:07:00,
2013-12-09 03:12:00,32.5,31.0,30.45,NE,45,4.2,7.0,92,0.00,,,0.00,Rainwise IP-100,2013-12-09 08:12:00,
2013-12-09 03:17:00,32.5,32.0,30.45,NNE,22,5.6,6.0,93,0.00,,,0.00,Rainwise IP-100,2013-12-09 08:17:00,
2013-12-09 03:22:00,32.5,32.0,30.45,NE,45,6.1,7.0,93,0.00,,,0.00,Rainwise IP-100,2013-12-09 08:22:00,
2013-12-09 03:27:00,32.4,31.0,30.45,NNE,22,5.6,8.0,94,0.00,,,0.00,Rainwise IP-100,2013-12-09 08:27:00,
2013-12-09 03:32:00,32.4,31.0,30.44,NNE,22,10.7,10.7,94,0.00,,,0.00,Rainwise IP-100,2013-12-09 08:32:00,
2013-12-09 03:37:00,32.4,31.0,30.44,ENE,67,4.0,10.0,94,0.00,,,0.00,Rainwise IP-100,2013-12-09 08:37:00,
2013-12-09 03:42:00,32.4,31.0,30.44,NE,45,4.9,7.0,95,0.00,,,0.00,Rainwise IP-100,2013-12-09 08:42:00,
2013-12-09 03:47:00,32.5,32.0,30.44,NNE,22,4.7,7.0,95,0.00,,,0.00,Rainwise IP-100,2013-12-09 08:47:00,
2013-12-09 03:52:00,32.6,32.0,30.43,NNE,22,3.5,7.0,95,0.00,,,0.00,Rainwise IP-100,2013-12-09 08:52:00,
2013-12-09 03:56:00,32.7,32.0,30.43,NE,45,3.0,9.0,96,0.00,,,0.00,Rainwise IP-100,2013-12-09 08:56:00,
2013-12-09 04:01:00,32.7,32.0,30.42,NNW,337,2.8,9.0,96,0.00,,,0.00,Rainwise IP-100,2013-12-09 09:01:00,
2013-12-09 04:06:00,32.7,32.0,30.42,ENE,67,8.2,8.2,96,0.00,,,0.00,Rainwise IP-100,2013-12-09 09:06:00,
2013-12-09 04:11:00,32.8,32.0,30.41,ENE,67,5.4,9.0,97,0.00,,,0.00,Rainwise IP-100,2013-12-09 09:11:00,
2013-12-09 04:16:00,32.9,32.0,30.41,NNE,22,4.4,9.0,97,0.00,,,0.00,Rainwise IP-100,2013-12-09 09:16:00,
2013-12-09 04:21:00,32.9,32.0,30.42,ENE,67,3.0,8.0,97,0.00,,,0.00,Rainwise IP-100,2013-12-09 09:21:00,
2013-12-09 04:26:00,32.9,32.0,30.42,NNE,22,4.4,7.0,97,0.00,,,0.00,Rainwise IP-100,2013-12-09 09:26:00,
2013-12-09 04:31:00,32.9,32.0,30.41,NNE,22,4.9,8.0,97,0.00,,,0.00,Rainwise IP-100,2013-12-09 09:31:00,
2013-12-09 04:36:00,32.9,33.0,30.40,NE,45,4.9,10.0,98,0.00,,,0.00,Rainwise IP-100,2013-12-09 09:36:00,
2013-12-09 04:41:00,33.0,33.0,30.40,NE,45,5.6,9.0,98,0.00,,,0.00,Rainwise IP-100,2013-12-09 09:41:00,
2013-12-09 04:46:00,33.1,33.0,30.39,NE,45,5.8,9.0,98,0.00,,,0.00,Rainwise IP-100,2013-12-09 09:46:00,
2013-12-09 04:51:00,33.1,33.0,30.39,NNE,22,6.5,10.0,98,0.00,,,0.00,Rainwise IP-100,2013-12-09 09:51:00,
2013-12-09 04:56:00,33.2,33.0,30.40,ENE,67,0.0,8.0,98,0.00,,,0.00,Rainwise IP-100,2013-12-09 09:56:00,
2013-12-09 05:01:00,33.3,33.0,30.39,NE,45,4.9,9.0,98,0.00,,,0.00,Rainwise IP-100,2013-12-09 10:01:00,
2013-12-09 05:06:00,33.3,33.0,30.39,ENE,67,3.0,9.0,98,0.00,,,0.00,Rainwise IP-100,2013-12-09 10:06:00,
2013-12-09 05:11:00,33.4,33.0,30.38,ENE,67,8.9,10.0,99,0.00,,,0.00,Rainwise IP-100,2013-12-09 10:11:00,
2013-12-09 05:16:00,33.6,35.0,30.38,ENE,67,5.6,8.0,99,0.00,,,0.00,Rainwise IP-100,2013-12-09 10:16:00,
2013-12-09 05:21:00,33.7,35.0,30.38,ENE,67,3.3,10.0,99,0.00,,,0.00,Rainwise IP-100,2013-12-09 10:21:00,
2013-12-09 05:26:00,33.9,35.0,30.38,NW,315,2.3,8.0,99,0.00,,,0.00,Rainwise IP-100,2013-12-09 10:26:00,
2013-12-09 05:31:00,34.0,35.0,30.39,NNE,22,4.4,8.0,99,0.00,,,0.00,Rainwise IP-100,2013-12-09 10:31:00,
2013-12-09 05:36:00,34.2,35.0,30.38,NE,45,4.0,7.0,99,0.00,,,0.00,Rainwise IP-100,2013-12-09 10:36:00,
2013-12-09 05:41:00,34.3,35.0,30.37,NE,45,7.2,11.0,99,0.00,,,0.00,Rainwise IP-100,2013-12-09 10:41:00,
2013-12-09 05:46:00,34.3,35.0,30.37,NE,45,7.0,9.0,99,0.00,,,0.00,Rainwise IP-100,2013-12-09 10:46:00,
2013-12-09 05:51:00,34.5,35.0,30.37,NNE,22,6.1,11.0,99,0.00,,,0.00,Rainwise IP-100,2013-12-09 10:51:00,
2013-12-09 05:56:00,34.7,35.0,30.36,NE,45,14.0,14.0,99,0.00,,,0.00,Rainwise IP-100,2013-12-09 10:56:00,
2013-12-09 06:00:00,34.8,35.0,30.36,ENE,67,14.9,14.9,100,0.00,,,0.00,Rainwise IP-100,2013-12-09 11:00:00,
2013-12-09 06:05:00,35.2,35.0,30.36,ENE,67,10.5,18.0,100,0.00,,,0.00,Rainwise IP-100,2013-12-09 11:05:00,
2013-12-09 06:10:00,35.7,36.0,30.35,ENE,67,11.9,16.0,100,0.06,,,0.01,Rainwise IP-100,2013-12-09 11:10:00,
2013-12-09 06:15:00,35.9,36.0,30.35,ENE,67,6.3,17.0,100,0.12,,,0.02,Rainwise IP-100,2013-12-09 11:15:00,
2013-12-09 06:20:00,36.0,36.0,30.34,NE,45,7.7,17.0,100,0.12,,,0.03,Rainwise IP-100,2013-12-09 11:20:00,
2013-12-09 06:25:00,36.1,36.0,30.34,NE,45,8.9,13.0,100,0.12,,,0.04,Rainwise IP-100,2013-12-09 11:25:00,
2013-12-09 06:30:00,36.2,36.0,30.34,NE,45,13.3,17.0,100,0.12,,,0.05,Rainwise IP-100,2013-12-09 11:30:00,
2013-12-09 06:35:00,36.3,36.0,30.33,NNE,22,6.8,14.0,100,0.12,,,0.06,Rainwise IP-100,2013-12-09 11:35:00,
2013-12-09 06:40:00,36.5,37.0,30.33,NE,45,9.8,19.0,100,0.12,,,0.07,Rainwise IP-100,2013-12-09 11:40:00,
2013-12-09 06:45:00,36.5,37.0,30.34,East,90,14.0,18.0,100,0.12,,,0.08,Rainwise IP-100,2013-12-09 11:45:00,
2013-12-09 06:50:00,36.6,37.0,30.33,ENE,67,17.7,18.0,100,0.12,,,0.09,Rainwise IP-100,2013-12-09 11:50:00,
2013-12-09 06:55:00,36.7,37.0,30.32,ENE,67,9.8,17.0,100,0.12,,,0.10,Rainwise IP-100,2013-12-09 11:55:00,
2013-12-09 07:00:00,36.8,37.0,30.32,ENE,67,15.4,16.0,100,0.06,,,0.10,Rainwise IP-100,2013-12-09 12:00:00,
2013-12-09 07:05:00,37.0,37.0,30.32,East,90,8.2,17.0,100,0.06,,,0.11,Rainwise IP-100,2013-12-09 12:05:00,
2013-12-09 07:10:00,37.2,37.0,30.32,ENE,67,10.7,17.0,100,0.12,,,0.12,Rainwise IP-100,2013-12-09 12:10:00,
2013-12-09 07:15:00,37.3,37.0,30.32,NNE,22,6.1,16.0,100,0.12,,,0.13,Rainwise IP-100,2013-12-09 12:15:00,
2013-12-09 07:20:00,37.4,37.0,30.32,ENE,67,18.2,18.2,100,0.12,,,0.14,Rainwise IP-100,2013-12-09 12:20:00,
2013-12-09 07:25:00,37.5,38.0,30.32,NNE,22,6.8,18.0,100,0.12,,,0.15,Rainwise IP-100,2013-12-09 12:25:00,
2013-12-09 07:30:00,37.7,38.0,30.32,ENE,67,13.5,16.0,100,0.12,,,0.16,Rainwise IP-100,2013-12-09 12:30:00,
2013-12-09 07:35:00,37.8,38.0,30.31,NE,45,11.7,18.0,100,0.06,,,0.16,Rainwise IP-100,2013-12-09 12:35:00,
2013-12-09 07:40:00,37.9,38.0,30.30,NE,45,9.3,18.0,100,0.06,,,0.17,Rainwise IP-100,2013-12-09 12:40:00,
2013-12-09 07:45:00,38.0,38.0,30.31,ENE,67,10.0,20.0,100,0.06,,,0.17,Rainwise IP-100,2013-12-09 12:45:00,
2013-12-09 07:50:00,38.1,38.0,30.30,ENE,67,7.9,14.0,100,0.06,,,0.18,Rainwise IP-100,2013-12-09 12:50:00,
2013-12-09 07:55:00,38.2,38.0,30.29,ENE,67,11.4,14.0,100,0.06,,,0.18,Rainwise IP-100,2013-12-09 12:55:00,
2013-12-09 08:00:00,38.3,38.0,30.29,NNE,22,6.1,19.0,100,0.06,,,0.19,Rainwise IP-100,2013-12-09 13:00:00,
2013-12-09 08:05:00,38.3,38.0,30.29,ENE,67,15.4,16.0,100,0.06,,,0.19,Rainwise IP-100,2013-12-09 13:05:00,
2013-12-09 08:10:00,38.5,39.0,30.28,NE,45,11.7,25.0,100,0.06,,,0.20,Rainwise IP-100,2013-12-09 13:10:00,
2013-12-09 08:15:00,38.6,39.0,30.26,ENE,67,10.0,18.0,99,0.06,,,0.20,Rainwise IP-100,2013-12-09 13:15:00,
2013-12-09 08:20:00,38.8,39.0,30.27,NNE,22,8.2,21.0,99,0.06,,,0.21,Rainwise IP-100,2013-12-09 13:20:00,
2013-12-09 08:25:00,38.9,39.0,30.27,ENE,67,7.9,15.0,99,0.06,,,0.21,Rainwise IP-100,2013-12-09 13:25:00,
2013-12-09 08:30:00,39.0,39.0,30.26,NNE,22,14.9,20.0,99,0.00,,,0.21,Rainwise IP-100,2013-12-09 13:30:00,
2013-12-09 08:35:00,39.0,39.0,30.25,ENE,67,7.0,18.0,99,0.00,,,0.21,Rainwise IP-100,2013-12-09 13:35:00,
2013-12-09 08:40:00,39.1,39.0,30.25,NE,45,11.2,23.0,99,0.06,,,0.22,Rainwise IP-100,2013-12-09 13:40:00,
2013-12-09 08:45:00,39.1,39.0,30.25,ENE,67,8.9,19.0,99,0.06,,,0.22,Rainwise IP-100,2013-12-09 13:45:00,
2013-12-09 08:50:00,39.2,39.0,30.23,ESE,112,8.6,17.0,99,0.00,,,0.22,Rainwise IP-100,2013-12-09 13:50:00,
2013-12-09 08:55:00,39.3,39.0,30.23,NNE,22,8.9,21.0,99,0.06,,,0.23,Rainwise IP-100,2013-12-09 13:55:00,
2013-12-09 09:00:00,39.4,39.0,30.22,ENE,67,13.8,21.0,99,0.06,,,0.23,Rainwise IP-100,2013-12-09 14:00:00,
2013-12-09 09:05:00,39.5,40.0,30.22,ENE,67,10.7,25.0,99,0.00,,,0.23,Rainwise IP-100,2013-12-09 14:05:00,
2013-12-09 09:10:00,39.6,40.0,30.22,ENE,67,11.9,17.0,98,0.00,,,0.23,Rainwise IP-100,2013-12-09 14:10:00,
2013-12-09 09:15:00,39.8,40.0,30.22,NE,45,8.2,20.0,98,0.00,,,0.23,Rainwise IP-100,2013-12-09 14:15:00,
2013-12-09 09:20:00,39.9,40.0,30.22,NE,45,14.7,17.0,98,0.00,,,0.23,Rainwise IP-100,2013-12-09 14:20:00,
2013-12-09 09:25:00,40.0,40.0,30.21,ENE,67,11.9,15.0,98,0.00,,,0.23,Rainwise IP-100,2013-12-09 14:25:00,
2013-12-09 09:30:00,40.0,40.0,30.20,ENE,67,9.1,21.0,98,0.06,,,0.24,Rainwise IP-100,2013-12-09 14:30:00,
2013-12-09 09:35:00,40.2,40.0,30.19,ENE,67,17.5,17.5,98,0.06,,,0.24,Rainwise IP-100,2013-12-09 14:35:00,
2013-12-09 09:40:00,40.3,40.0,30.19,ENE,67,9.6,22.0,98,0.00,,,0.24,Rainwise IP-100,2013-12-09 14:40:00,
2013-12-09 09:45:00,40.5,40.0,30.19,ENE,67,6.5,20.0,98,0.00,,,0.24,Rainwise IP-100,2013-12-09 14:45:00,
2013-12-09 09:50:00,40.6,40.0,30.18,ENE,67,15.9,15.9,98,0.00,,,0.24,Rainwise IP-100,2013-12-09 14:50:00,
2013-12-09 09:55:00,40.8,40.0,30.19,ENE,67,7.2,22.0,98,0.00,,,0.24,Rainwise IP-100,2013-12-09 14:55:00,
2013-12-09 10:00:00,40.9,40.0,30.18,ENE,67,12.4,22.0,97,0.00,,,0.24,Rainwise IP-100,2013-12-09 15:00:00,
2013-12-09 10:05:00,41.0,40.0,30.17,NE,45,11.4,21.0,97,0.00,,,0.24,Rainwise IP-100,2013-12-09 15:05:00,
2013-12-09 10:10:00,41.0,40.0,30.16,ESE,112,11.0,19.0,97,0.06,,,0.25,Rainwise IP-100,2013-12-09 15:10:00,
2013-12-09 10:15:00,41.1,40.0,30.15,ENE,67,18.9,25.0,97,0.06,,,0.25,Rainwise IP-100,2013-12-09 15:15:00,
2013-12-09 10:20:00,41.1,40.0,30.15,NE,45,8.4,21.0,97,0.00,,,0.25,Rainwise IP-100,2013-12-09 15:20:00,
2013-12-09 10:25:00,41.1,40.0,30.14,ENE,67,14.7,18.0,97,0.00,,,0.26,Rainwise IP-100,2013-12-09 15:25:00,
2013-12-09 10:30:00,41.2,40.0,30.15,ENE,67,15.6,21.0,97,0.06,,,0.27,Rainwise IP-100,2013-12-09 15:30:00,
2013-12-09 10:35:00,41.3,40.0,30.15,ENE,67,11.0,19.0,97,0.18,,,0.28,Rainwise IP-100,2013-12-09 15:35:00,
2013-12-09 10:40:00,41.3,40.0,30.16,ENE,67,11.2,20.0,97,0.18,,,0.30,Rainwise IP-100,2013-12-09 15:40:00,
2013-12-09 10:45:00,41.4,40.0,30.17,East,90,12.8,16.0,98,0.18,,,0.31,Rainwise IP-100,2013-12-09 15:45:00,
2013-12-09 10:50:00,41.5,41.0,30.17,NE,45,11.4,13.0,98,0.18,,,0.32,Rainwise IP-100,2013-12-09 15:50:00,
2013-12-09 10:55:00,41.5,41.0,30.18,East,90,5.4,13.0,98,0.12,,,0.34,Rainwise IP-100,2013-12-09 15:55:00,
2013-12-09 11:00:00,41.6,41.0,30.18,ENE,67,6.5,13.0,98,0.24,,,0.36,Rainwise IP-100,2013-12-09 16:00:00,
2013-12-09 11:05:00,41.7,42.0,30.17,ENE,67,11.7,11.7,99,0.18,,,0.37,Rainwise IP-100,2013-12-09 16:05:00,
2013-12-09 11:10:00,41.8,42.0,30.16,ESE,112,4.7,13.0,99,0.06,,,0.37,Rainwise IP-100,2013-12-09 16:10:00,
2013-12-09 11:15:00,42.0,42.0,30.16,ENE,67,9.3,12.0,99,0.06,,,0.37,Rainwise IP-100,2013-12-09 16:15:00,
2013-12-09 11:20:00,42.1,42.0,30.16,NE,45,3.0,9.0,99,0.00,,,0.37,Rainwise IP-100,2013-12-09 16:20:00,
2013-12-09 11:25:00,42.2,42.0,30.15,ENE,67,4.9,10.0,99,0.00,,,0.37,Rainwise IP-100,2013-12-09 16:25:00,
2013-12-09 11:30:00,42.3,42.0,30.15,ESE,112,4.9,9.0,99,0.00,,,0.37,Rainwise IP-100,2013-12-09 16:30:00,
2013-12-09 11:35:00,42.6,43.0,30.16,ENE,67,4.0,9.0,99,0.06,,,0.38,Rainwise IP-100,2013-12-09 16:35:00,
2013-12-09 11:40:00,42.7,43.0,30.16,NE,45,4.7,11.0,100,0.06,,,0.38,Rainwise IP-100,2013-12-09 16:40:00,
2013-12-09 11:45:00,42.7,43.0,30.15,ENE,67,5.1,9.0,100,0.00,,,0.38,Rainwise IP-100,2013-12-09 16:45:00,
2013-12-09 11:50:00,42.8,43.0,30.14,NE,45,4.7,7.0,100,0.00,,,0.38,Rainwise IP-100,2013-12-09 16:50:00,
2013-12-09 11:55:00,42.8,43.0,30.14,NE,45,3.0,6.0,100,0.06,,,0.39,Rainwise IP-100,2013-12-09 16:55:00,
2013-12-09 12:00:00,42.9,43.0,30.13,ENE,67,5.6,5.6,100,0.06,,,0.39,Rainwise IP-100,2013-12-09 17:00:00,
2013-12-09 12:05:00,43.0,43.0,30.12,ENE,67,4.2,7.0,100,0.00,,,0.39,Rainwise IP-100,2013-12-09 17:05:00,
2013-12-09 12:10:00,43.0,43.0,30.11,NE,45,3.5,8.0,100,0.00,,,0.39,Rainwise IP-100,2013-12-09 17:10:00,
2013-12-09 12:15:00,42.9,43.0,30.10,NE,45,2.6,6.0,100,0.00,,,0.39,Rainwise IP-100,2013-12-09 17:15:00,
2013-12-09 12:20:00,42.8,43.0,30.09,ENE,67,4.9,8.0,100,0.00,,,0.39,Rainwise IP-100,2013-12-09 17:20:00,
2013-12-09 12:25:00,42.8,43.0,30.09,NE,45,6.3,10.0,100,0.00,,,0.39,Rainwise IP-100,2013-12-09 17:25:00,
2013-12-09 12:30:00,42.8,43.0,30.09,NE,45,5.1,7.0,100,0.00,,,0.39,Rainwise IP-100,2013-12-09 17:30:00,
2013-12-09 12:35:00,42.7,43.0,30.09,ENE,67,5.8,7.0,100,0.00,,,0.39,Rainwise IP-100,2013-12-09 17:35:00,
2013-12-09 12:40:00,42.8,43.0,30.07,ENE,67,3.3,8.0,100,0.00,,,0.39,Rainwise IP-100,2013-12-09 17:40:00,
2013-12-09 12:45:00,42.8,43.0,30.06,ENE,67,6.3,9.0,100,0.00,,,0.39,Rainwise IP-100,2013-12-09 17:45:00,
2013-12-09 12:50:00,42.8,43.0,30.07,NE,45,4.9,7.0,100,0.00,,,0.39,Rainwise IP-100,2013-12-09 17:50:00,
2013-12-09 12:55:00,42.7,43.0,30.06,NE,45,4.7,10.0,100,0.00,,,0.39,Rainwise IP-100,2013-12-09 17:55:00,
2013-12-09 13:00:00,42.7,43.0,30.06,ENE,67,5.8,7.0,100,0.00,,,0.39,Rainwise IP-100,2013-12-09 18:00:00,
2013-12-09 13:05:00,42.8,43.0,30.06,NE,45,6.8,9.0,100,0.00,,,0.39,Rainwise IP-100,2013-12-09 18:05:00,
2013-12-09 13:10:00,43.0,43.0,30.05,NE,45,6.8,7.0,100,0.00,,,0.39,Rainwise IP-100,2013-12-09 18:10:00,
2013-12-09 13:15:00,43.2,43.0,30.04,ENE,67,3.7,7.0,100,0.06,,,0.40,Rainwise IP-100,2013-12-09 18:15:00,
2013-12-09 13:20:00,43.2,43.0,30.03,NE,45,5.1,9.0,100,0.06,,,0.40,Rainwise IP-100,2013-12-09 18:20:00,
2013-12-09 13:25:00,43.3,43.0,30.03,NE,45,5.1,8.0,100,0.00,,,0.40,Rainwise IP-100,2013-12-09 18:25:00,
2013-12-09 13:30:00,43.4,43.0,30.03,NE,45,2.1,10.0,100,0.00,,,0.40,Rainwise IP-100,2013-12-09 18:30:00,
2013-12-09 13:35:00,43.5,44.0,30.03,NE,45,4.2,6.0,100,0.00,,,0.40,Rainwise IP-100,2013-12-09 18:35:00,
2013-12-09 13:40:00,43.7,44.0,30.02,NE,45,3.7,10.0,100,0.00,,,0.40,Rainwise IP-100,2013-12-09 18:40:00,
2013-12-09 13:45:00,43.9,44.0,30.02,ENE,67,5.1,8.0,100,0.00,,,0.40,Rainwise IP-100,2013-12-09 18:45:00,
2013-12-09 13:50:00,44.1,44.0,30.00,NNE,22,4.0,10.0,100,0.00,,,0.40,Rainwise IP-100,2013-12-09 18:50:00,
2013-12-09 13:55:00,44.2,44.0,30.00,NE,45,6.5,9.0,100,0.00,,,0.40,Rainwise IP-100,2013-12-09 18:55:00,
2013-12-09 14:00:00,44.2,44.0,30.00,NE,45,6.1,10.0,100,0.00,,,0.40,Rainwise IP-100,2013-12-09 19:00:00,
2013-12-09 14:05:00,44.2,44.0,29.98,ENE,67,4.2,8.0,100,0.00,,,0.40,Rainwise IP-100,2013-12-09 19:05:00,
2013-12-09 14:10:00,44.1,44.0,29.98,ENE,67,3.0,8.0,100,0.00,,,0.40,Rainwise IP-100,2013-12-09 19:10:00,
2013-12-09 14:15:00,44.1,44.0,29.99,ENE,67,3.5,8.0,100,0.00,,,0.40,Rainwise IP-100,2013-12-09 19:15:00,
2013-12-09 14:20:00,44.0,44.0,29.98,NE,45,3.5,5.0,100,0.00,,,0.40,Rainwise IP-100,2013-12-09 19:20:00,
2013-12-09 14:25:00,43.9,44.0,29.97,ENE,67,3.5,6.0,100,0.00,,,0.40,Rainwise IP-100,2013-12-09 19:25:00,
2013-12-09 14:30:00,43.9,44.0,29.97,ENE,67,3.0,6.0,100,0.00,,,0.40,Rainwise IP-100,2013-12-09 19:30:00,
2013-12-09 14:35:00,43.8,44.0,29.96,NE,45,4.2,4.2,100,0.00,,,0.40,Rainwise IP-100,2013-12-09 19:35:00,
2013-12-09 14:40:00,43.7,44.0,29.96,ENE,67,3.5,5.0,100,0.00,,,0.40,Rainwise IP-100,2013-12-09 19:40:00,
2013-12-09 14:45:00,43.8,44.0,29.95,ENE,67,3.7,6.0,100,0.00,,,0.40,Rainwise IP-100,2013-12-09 19:45:00,
2013-12-09 14:50:00,44.0,44.0,29.95,ENE,67,4.4,5.0,100,0.00,,,0.40,Rainwise IP-100,2013-12-09 19:50:00,
2013-12-09 14:55:00,44.1,44.0,29.95,ENE,67,2.8,6.0,100,0.00,,,0.40,Rainwise IP-100,2013-12-09 19:55:00,
2013-12-09 15:00:00,44.2,44.0,29.95,ENE,67,1.9,8.0,100,0.00,,,0.40,Rainwise IP-100,2013-12-09 20:00:00,
2013-12-09 15:05:00,44.3,44.0,29.95,ENE,67,5.6,5.6,100,0.00,,,0.40,Rainwise IP-100,2013-12-09 20:05:00,
2013-12-09 15:10:00,44.3,44.0,29.94,ENE,67,2.6,5.0,100,0.00,,,0.40,Rainwise IP-100,2013-12-09 20:10:00,
2013-12-09 15:15:00,44.3,44.0,29.94,ENE,67,2.1,5.0,100,0.00,,,0.40,Rainwise IP-100,2013-12-09 20:15:00,
2013-12-09 15:20:00,44.5,45.0,29.94,ENE,67,4.2,5.0,100,0.00,,,0.40,Rainwise IP-100,2013-12-09 20:20:00,
2013-12-09 15:25:00,44.7,45.0,29.94,ENE,67,2.8,5.0,100,0.00,,,0.40,Rainwise IP-100,2013-12-09 20:25:00,
2013-12-09 15:30:00,44.9,45.0,29.94,NE,45,2.8,5.0,100,0.00,,,0.40,Rainwise IP-100,2013-12-09 20:30:00,
2013-12-09 15:35:00,45.0,45.0,29.94,NE,45,0.0,4.0,100,0.00,,,0.40,Rainwise IP-100,2013-12-09 20:35:00,
2013-12-09 15:40:00,45.2,45.0,29.94,NNE,22,1.2,2.0,100,0.00,,,0.40,Rainwise IP-100,2013-12-09 20:40:00,
2013-12-09 15:45:00,45.3,45.0,29.94,NNE,22,2.1,3.0,100,0.00,,,0.40,Rainwise IP-100,2013-12-09 20:45:00,
2013-12-09 15:50:00,45.2,45.0,29.94,NNE,22,1.4,2.0,100,0.00,,,0.40,Rainwise IP-100,2013-12-09 20:50:00,
2013-12-09 15:55:00,45.2,45.0,29.94,NNE,22,2.3,2.3,100,0.00,,,0.40,Rainwise IP-100,2013-12-09 20:55:00,
2013-12-09 16:00:00,45.3,45.0,29.93,NE,45,0.0,4.0,100,0.00,,,0.40,Rainwise IP-100,2013-12-09 21:00:00,
2013-12-09 16:05:00,45.4,45.0,29.93,WNW,292,2.6,2.6,100,0.00,,,0.40,Rainwise IP-100,2013-12-09 21:05:00,
2013-12-09 16:10:00,45.4,45.0,29.94,WNW,292,0.0,3.0,100,0.00,,,0.40,Rainwise IP-100,2013-12-09 21:10:00,
2013-12-09 16:15:00,45.4,45.0,29.94,WNW,292,1.4,3.0,100,0.06,,,0.41,Rainwise IP-100,2013-12-09 21:15:00,
2013-12-09 16:20:00,45.7,46.0,29.94,WNW,292,0.0,2.0,100,0.06,,,0.41,Rainwise IP-100,2013-12-09 21:20:00,
2013-12-09 16:25:00,45.8,46.0,29.93,WNW,292,2.8,3.0,100,0.00,,,0.41,Rainwise IP-100,2013-12-09 21:25:00,
2013-12-09 16:30:00,45.8,46.0,29.94,WNW,292,3.0,4.0,100,0.00,,,0.41,Rainwise IP-100,2013-12-09 21:30:00,
2013-12-09 16:35:00,46.1,46.0,29.94,WSW,247,4.0,5.0,100,0.00,,,0.41,Rainwise IP-100,2013-12-09 21:35:00,
2013-12-09 16:40:00,46.3,46.0,29.95,West,270,5.4,6.0,100,0.00,,,0.41,Rainwise IP-100,2013-12-09 21:40:00,
2013-12-09 16:45:00,46.4,46.0,29.94,West,270,4.9,7.0,100,0.00,,,0.41,Rainwise IP-100,2013-12-09 21:45:00,
2013-12-09 16:50:00,46.4,46.0,29.94,West,270,2.3,6.0,100,0.00,,,0.41,Rainwise IP-100,2013-12-09 21:50:00,
2013-12-09 16:55:00,46.4,46.0,29.94,West,270,3.5,5.0,100,0.00,,,0.41,Rainwise IP-100,2013-12-09 21:55:00,
2013-12-09 17:00:00,46.4,46.0,29.94,WSW,247,4.7,5.0,100,0.00,,,0.41,Rainwise IP-100,2013-12-09 22:00:00,
2013-12-09 17:05:00,46.4,46.0,29.93,WSW,247,2.1,5.0,100,0.00,,,0.41,Rainwise IP-100,2013-12-09 22:05:00,
2013-12-09 17:10:00,46.3,46.0,29.93,WSW,247,3.7,3.7,100,0.00,,,0.41,Rainwise IP-100,2013-12-09 22:10:00,
2013-12-09 17:15:00,46.1,46.0,29.92,West,270,2.8,6.0,100,0.00,,,0.41,Rainwise IP-100,2013-12-09 22:15:00,
2013-12-09 17:20:00,45.9,46.0,29.93,West,270,2.8,7.0,100,0.00,,,0.41,Rainwise IP-100,2013-12-09 22:20:00,
2013-12-09 17:25:00,45.7,46.0,29.94,West,270,1.6,7.0,100,0.00,,,0.41,Rainwise IP-100,2013-12-09 22:25:00,
2013-12-09 17:30:00,45.5,46.0,29.94,West,270,2.6,5.0,100,0.00,,,0.41,Rainwise IP-100,2013-12-09 22:30:00,
2013-12-09 17:35:00,45.3,45.0,29.94,WSW,247,4.7,6.0,100,0.00,,,0.41,Rainwise IP-100,2013-12-09 22:35:00,
2013-12-09 17:40:00,45.2,45.0,29.94,WNW,292,2.8,5.0,100,0.00,,,0.41,Rainwise IP-100,2013-12-09 22:40:00,
2013-12-09 17:45:00,45.1,45.0,29.93,WNW,292,2.3,3.0,100,0.00,,,0.41,Rainwise IP-100,2013-12-09 22:45:00,
2013-12-09 17:50:00,45.0,45.0,29.93,West,270,1.2,5.0,100,0.00,,,0.41,Rainwise IP-100,2013-12-09 22:50:00,
2013-12-09 17:55:00,44.9,45.0,29.93,West,270,2.8,3.0,100,0.00,,,0.41,Rainwise IP-100,2013-12-09 22:55:00,
2013-12-09 18:00:00,44.8,45.0,29.94,WSW,247,1.9,3.0,100,0.00,,,0.41,Rainwise IP-100,2013-12-09 23:00:00,
2013-12-09 18:05:00,44.8,45.0,29.94,WSW,247,2.6,4.0,100,0.00,,,0.41,Rainwise IP-100,2013-12-09 23:05:00,
2013-12-09 18:10:00,44.7,45.0,29.94,West,270,4.0,4.0,100,0.00,,,0.41,Rainwise IP-100,2013-12-09 23:10:00,
2013-12-09 18:15:00,44.6,45.0,29.94,WSW,247,4.2,4.2,100,0.00,,,0.41,Rainwise IP-100,2013-12-09 23:15:00,
2013-12-09 18:20:00,44.6,45.0,29.94,WSW,247,2.6,6.0,100,0.00,,,0.41,Rainwise IP-100,2013-12-09 23:20:00,
2013-12-09 18:25:00,44.6,45.0,29.94,WSW,247,1.6,4.0,100,0.00,,,0.41,Rainwise IP-100,2013-12-09 23:25:00,
2013-12-09 18:30:00,44.5,45.0,29.94,WSW,247,3.7,4.0,100,0.00,,,0.41,Rainwise IP-100,2013-12-09 23:30:00,
2013-12-09 18:35:00,44.4,44.0,29.94,WSW,247,2.8,5.0,100,0.00,,,0.41,Rainwise IP-100,2013-12-09 23:35:00,
2013-12-09 18:40:00,44.3,44.0,29.94,WSW,247,1.4,4.0,100,0.00,,,0.41,Rainwise IP-100,2013-12-09 23:40:00,
2013-12-09 18:45:00,44.1,44.0,29.94,WSW,247,1.6,5.0,100,0.00,,,0.41,Rainwise IP-100,2013-12-09 23:45:00,
2013-12-09 18:50:00,44.1,44.0,29.93,WSW,247,2.6,5.0,100,0.00,,,0.41,Rainwise IP-100,2013-12-09 23:50:00,
2013-12-09 18:55:00,44.0,44.0,29.94,SW,225,1.9,3.0,100,0.00,,,0.41,Rainwise IP-100,2013-12-09 23:55:00,
2013-12-09 19:00:00,44.0,44.0,29.93,WSW,247,1.6,4.0,100,0.00,,,0.41,Rainwise IP-100,2013-12-10 00:00:00,
2013-12-09 19:05:00,43.9,44.0,29.94,WSW,247,3.5,5.0,100,0.00,,,0.41,Rainwise IP-100,2013-12-10 00:05:00,
2013-12-09 19:10:00,43.8,44.0,29.94,WSW,247,1.6,5.0,100,0.00,,,0.41,Rainwise IP-100,2013-12-10 00:10:00,
2013-12-09 19:15:00,43.8,44.0,29.94,WSW,247,3.5,5.0,100,0.00,,,0.41,Rainwise IP-100,2013-12-10 00:15:00,
2013-12-09 19:20:00,43.7,44.0,29.94,WSW,247,1.4,5.0,100,0.00,,,0.41,Rainwise IP-100,2013-12-10 00:20:00,
2013-12-09 19:25:00,43.7,44.0,29.95,SW,225,3.7,5.0,100,0.00,,,0.41,Rainwise IP-100,2013-12-10 00:25:00,
2013-12-09 19:30:00,43.7,44.0,29.94,WSW,247,6.3,6.3,100,0.00,,,0.41,Rainwise IP-100,2013-12-10 00:30:00,
2013-12-09 19:35:00,43.7,44.0,29.95,WSW,247,3.7,7.0,100,0.00,,,0.41,Rainwise IP-100,2013-12-10 00:35:00,
2013-12-09 19:40:00,43.7,44.0,29.95,WSW,247,4.4,6.0,100,0.00,,,0.41,Rainwise IP-100,2013-12-10 00:40:00,
2013-12-09 19:45:00,43.7,44.0,29.95,SW,225,1.9,7.0,100,0.00,,,0.41,Rainwise IP-100,2013-12-10 00:45:00,
2013-12-09 19:50:00,43.7,44.0,29.95,WSW,247,2.1,8.0,100,0.00,,,0.41,Rainwise IP-100,2013-12-10 00:50:00,
2013-12-09 19:55:00,43.7,44.0,29.95,SW,225,2.6,7.0,100,0.00,,,0.41,Rainwise IP-100,2013-12-10 00:55:00,
2013-12-09 20:00:00,43.7,44.0,29.95,WSW,247,4.4,8.0,100,0.00,,,0.41,Rainwise IP-100,2013-12-10 01:00:00,
2013-12-09 20:05:00,43.6,44.0,29.95,WSW,247,7.5,10.0,100,0.00,,,0.41,Rainwise IP-100,2013-12-10 01:05:00,
2013-12-09 20:10:00,43.6,44.0,29.95,WNW,292,7.7,9.0,100,0.00,,,0.41,Rainwise IP-100,2013-12-10 01:10:00,
2013-12-09 20:15:00,43.6,44.0,29.95,West,270,6.5,13.0,100,0.00,,,0.41,Rainwise IP-100,2013-12-10 01:15:00,
2013-12-09 20:20:00,43.7,44.0,29.95,SW,225,3.0,12.0,100,0.00,,,0.41,Rainwise IP-100,2013-12-10 01:20:00,
2013-12-09 20:25:00,43.7,44.0,29.95,SW,225,4.0,12.0,100,0.00,,,0.41,Rainwise IP-100,2013-12-10 01:25:00,
2013-12-09 20:30:00,43.7,44.0,29.95,SW,225,6.8,11.0,100,0.00,,,0.41,Rainwise IP-100,2013-12-10 01:30:00,
2013-12-09 20:35:00,43.7,44.0,29.95,WSW,247,5.6,8.0,100,0.00,,,0.41,Rainwise IP-100,2013-12-10 01:35:00,
2013-12-09 20:40:00,43.7,44.0,29.95,SSW,202,9.1,13.0,100,0.00,,,0.41,Rainwise IP-100,2013-12-10 01:40:00,
2013-12-09 20:45:00,43.7,44.0,29.95,WSW,247,10.3,11.0,100,0.00,,,0.41,Rainwise IP-100,2013-12-10 01:45:00,
2013-12-09 20:50:00,43.7,44.0,29.95,WSW,247,8.2,17.0,100,0.00,,,0.41,Rainwise IP-100,2013-12-10 01:50:00,
2013-12-09 20:55:00,43.7,44.0,29.95,West,270,2.1,16.0,100,0.00,,,0.41,Rainwise IP-100,2013-12-10 01:55:00,
2013-12-09 21:00:00,43.6,44.0,29.96,WSW,247,11.2,13.0,100,0.00,,,0.41,Rainwise IP-100,2013-12-10 02:00:00,
2013-12-09 21:05:00,43.4,43.0,29.96,WSW,247,14.9,18.0,100,0.06,,,0.42,Rainwise IP-100,2013-12-10 02:05:00,
2013-12-09 21:10:00,43.3,43.0,29.96,WSW,247,4.2,16.0,100,0.06,,,0.42,Rainwise IP-100,2013-12-10 02:10:00,
2013-12-09 21:15:00,43.1,43.0,29.96,West,270,6.3,19.0,100,0.00,,,0.42,Rainwise IP-100,2013-12-10 02:15:00,
2013-12-09 21:20:00,42.9,43.0,29.96,WSW,247,8.2,16.0,100,0.00,,,0.42,Rainwise IP-100,2013-12-10 02:20:00,
2013-12-09 21:25:00,42.8,43.0,29.96,WSW,247,10.7,18.0,100,0.00,,,0.42,Rainwise IP-100,2013-12-10 02:25:00,
2013-12-09 21:30:00,42.8,43.0,29.97,WSW,247,6.3,17.0,100,0.00,,,0.42,Rainwise IP-100,2013-12-10 02:30:00,
2013-12-09 21:35:00,42.7,43.0,29.97,WSW,247,6.8,17.0,100,0.00,,,0.42,Rainwise IP-100,2013-12-10 02:35:00,
2013-12-09 21:40:00,42.6,43.0,29.97,WSW,247,4.7,13.0,100,0.00,,,0.42,Rainwise IP-100,2013-12-10 02:40:00,
2013-12-09 21:45:00,42.4,42.0,29.97,West,270,6.1,17.0,100,0.00,,,0.42,Rainwise IP-100,2013-12-10 02:45:00,
2013-12-09 21:50:00,42.2,42.0,29.97,WSW,247,5.6,18.0,100,0.00,,,0.42,Rainwise IP-100,2013-12-10 02:50:00,
2013-12-09 21:55:00,42.0,42.0,29.97,WSW,247,7.7,14.0,100,0.00,,,0.42,Rainwise IP-100,2013-12-10 02:55:00,
2013-12-09 22:00:00,41.9,42.0,29.97,WSW,247,7.7,12.0,100,0.00,,,0.42,Rainwise IP-100,2013-12-10 03:00:00,
2013-12-09 22:05:00,41.8,42.0,29.97,WSW,247,5.6,12.0,100,0.00,,,0.42,Rainwise IP-100,2013-12-10 03:05:00,
2013-12-09 22:10:00,41.7,42.0,29.96,SSW,202,4.2,10.0,100,0.00,,,0.42,Rainwise IP-100,2013-12-10 03:10:00,
2013-12-09 22:15:00,41.6,42.0,29.97,WSW,247,6.1,11.0,100,0.00,,,0.42,Rainwise IP-100,2013-12-10 03:15:00,
2013-12-09 22:20:00,41.5,42.0,29.98,WSW,247,4.7,9.0,100,0.00,,,0.42,Rainwise IP-100,2013-12-10 03:20:00,
2013-12-09 22:25:00,41.4,41.0,29.98,WSW,247,11.9,11.9,100,0.00,,,0.42,Rainwise IP-100,2013-12-10 03:25:00,
2013-12-09 22:30:00,41.3,41.0,29.98,West,270,7.7,11.0,100,0.00,,,0.42,Rainwise IP-100,2013-12-10 03:30:00,
2013-12-09 22:35:00,41.3,41.0,29.98,WSW,247,6.1,11.0,100,0.00,,,0.42,Rainwise IP-100,2013-12-10 03:35:00,
2013-12-09 22:40:00,41.3,41.0,29.98,SW,225,7.2,14.0,100,0.00,,,0.42,Rainwise IP-100,2013-12-10 03:40:00,
2013-12-09 22:45:00,41.2,41.0,29.98,West,270,7.5,13.0,100,0.00,,,0.42,Rainwise IP-100,2013-12-10 03:45:00,
2013-12-09 22:50:00,41.2,41.0,29.98,WSW,247,5.1,11.0,100,0.00,,,0.42,Rainwise IP-100,2013-12-10 03:50:00,
2013-12-09 22:55:00,41.2,41.0,29.98,NW,315,5.1,11.0,100,0.00,,,0.42,Rainwise IP-100,2013-12-10 03:55:00,
2013-12-09 23:00:00,41.0,41.0,29.98,WSW,247,16.6,16.6,100,0.00,,,0.42,Rainwise IP-100,2013-12-10 04:00:00,
2013-12-09 23:05:00,40.8,41.0,29.98,WSW,247,9.1,18.0,100,0.00,,,0.42,Rainwise IP-100,2013-12-10 04:05:00,
2013-12-09 23:10:00,40.8,41.0,29.98,WSW,247,7.5,10.0,100,0.00,,,0.42,Rainwise IP-100,2013-12-10 04:10:00,
2013-12-09 23:15:00,40.7,41.0,29.98,WNW,292,6.1,8.0,100,0.00,,,0.42,Rainwise IP-100,2013-12-10 04:15:00,
2013-12-09 23:20:00,40.6,41.0,29.98,WSW,247,5.6,9.0,100,0.00,,,0.42,Rainwise IP-100,2013-12-10 04:20:00,
2013-12-09 23:25:00,40.3,40.0,29.98,WSW,247,6.1,11.0,100,0.00,,,0.42,Rainwise IP-100,2013-12-10 04:25:00,
2013-12-09 23:30:00,40.2,40.0,29.98,West,270,1.4,11.0,100,0.00,,,0.42,Rainwise IP-100,2013-12-10 04:30:00,
2013-12-09 23:35:00,39.9,40.0,29.97,West,270,3.7,11.0,100,0.00,,,0.42,Rainwise IP-100,2013-12-10 04:35:00,
2013-12-09 23:40:00,39.6,40.0,29.97,WSW,247,5.6,8.0,100,0.00,,,0.42,Rainwise IP-100,2013-12-10 04:40:00,
2013-12-09 23:45:00,39.3,39.0,29.97,SW,225,3.5,9.0,100,0.00,,,0.42,Rainwise IP-100,2013-12-10 04:45:00,
2013-12-09 23:50:00,39.1,39.0,29.97,WSW,247,1.9,7.0,100,0.00,,,0.42,Rainwise IP-100,2013-12-10 04:50:00,
2013-12-09 23:55:00,38.8,39.0,29.97,WSW,247,1.4,6.0,100,0.00,,,0.42,Rainwise IP-100,2013-12-10 04:55:00,